sensor_id;sensor_type;location;lat;lon;timestamp;P1;durP1;ratioP1;P2;durP2;ratioP2
48052;SDS011;33824;51.600;5.718;2023-09-30T00:01:00;15.07;;;4.38;;
48052;SDS011;33824;51.600;5.718;2023-09-30T00:03:31;19.15;;;4.88;;
48052;SDS011;33824;51.600;5.718;2023-09-30T00:05:56;13.48;;;3.55;;
48052;SDS011;33824;51.600;5.718;2023-09-30T00:08:22;13.23;;;3.72;;
48052;SDS011;33824;51.600;5.718;2023-09-30T00:10:48;13.82;;;4.03;;
48052;SDS011;33824;51.600;5.718;2023-09-30T00:13:13;11.80;;;4.45;;
48052;SDS011;33824;51.600;5.718;2023-09-30T00:15:39;13.00;;;5.45;;
48052;SDS011;33824;51.600;5.718;2023-09-30T00:18:06;12.18;;;4.47;;
48052;SDS011;33824;51.600;5.718;2023-09-30T00:20:31;14.43;;;4.43;;
48052;SDS011;33824;51.600;5.718;2023-09-30T00:22:57;13.05;;;3.75;;
48052;SDS011;33824;51.600;5.718;2023-09-30T00:25:23;12.35;;;4.03;;
48052;SDS011;33824;51.600;5.718;2023-09-30T00:27:49;15.23;;;5.35;;
48052;SDS011;33824;51.600;5.718;2023-09-30T00:30:14;15.18;;;4.68;;
48052;SDS011;33824;51.600;5.718;2023-09-30T00:32:40;12.10;;;5.07;;
48052;SDS011;33824;51.600;5.718;2023-09-30T00:35:06;12.20;;;4.15;;
48052;SDS011;33824;51.600;5.718;2023-09-30T00:37:40;10.20;;;3.92;;
48052;SDS011;33824;51.600;5.718;2023-09-30T00:40:07;17.35;;;4.28;;
48052;SDS011;33824;51.600;5.718;2023-09-30T00:42:39;15.77;;;5.13;;
48052;SDS011;33824;51.600;5.718;2023-09-30T00:45:06;14.27;;;4.57;;
48052;SDS011;33824;51.600;5.718;2023-09-30T00:47:33;15.25;;;4.60;;
48052;SDS011;33824;51.600;5.718;2023-09-30T00:49:59;16.13;;;4.80;;
48052;SDS011;33824;51.600;5.718;2023-09-30T00:52:25;11.13;;;4.03;;
48052;SDS011;33824;51.600;5.718;2023-09-30T00:54:51;12.18;;;3.72;;
48052;SDS011;33824;51.600;5.718;2023-09-30T00:57:19;15.40;;;5.15;;
48052;SDS011;33824;51.600;5.718;2023-09-30T00:59:45;9.88;;;5.15;;
48052;SDS011;33824;51.600;5.718;2023-09-30T01:02:12;14.30;;;4.45;;
48052;SDS011;33824;51.600;5.718;2023-09-30T01:04:38;13.57;;;4.30;;
48052;SDS011;33824;51.600;5.718;2023-09-30T01:07:03;13.05;;;4.57;;
48052;SDS011;33824;51.600;5.718;2023-09-30T01:09:30;18.27;;;4.90;;
48052;SDS011;33824;51.600;5.718;2023-09-30T01:11:56;12.63;;;4.97;;
48052;SDS011;33824;51.600;5.718;2023-09-30T01:16:51;14.02;;;4.43;;
48052;SDS011;33824;51.600;5.718;2023-09-30T01:19:17;14.68;;;4.88;;
48052;SDS011;33824;51.600;5.718;2023-09-30T01:21:42;15.38;;;5.05;;
48052;SDS011;33824;51.600;5.718;2023-09-30T01:24:13;12.50;;;4.30;;
48052;SDS011;33824;51.600;5.718;2023-09-30T01:26:42;13.32;;;5.03;;
48052;SDS011;33824;51.600;5.718;2023-09-30T01:29:10;15.52;;;5.03;;
48052;SDS011;33824;51.600;5.718;2023-09-30T01:31:38;13.18;;;4.82;;
48052;SDS011;33824;51.600;5.718;2023-09-30T01:34:04;11.90;;;4.40;;
48052;SDS011;33824;51.600;5.718;2023-09-30T01:36:30;12.25;;;5.45;;
48052;SDS011;33824;51.600;5.718;2023-09-30T01:38:56;12.60;;;5.10;;
48052;SDS011;33824;51.600;5.718;2023-09-30T01:41:22;13.77;;;4.72;;
48052;SDS011;33824;51.600;5.718;2023-09-30T01:43:48;9.45;;;3.75;;
48052;SDS011;33824;51.600;5.718;2023-09-30T01:46:14;8.18;;;3.92;;
48052;SDS011;33824;51.600;5.718;2023-09-30T01:48:40;14.82;;;5.03;;
48052;SDS011;33824;51.600;5.718;2023-09-30T01:51:05;15.43;;;4.90;;
48052;SDS011;33824;51.600;5.718;2023-09-30T01:53:31;15.85;;;5.00;;
48052;SDS011;33824;51.600;5.718;2023-09-30T01:55:58;14.27;;;4.43;;
48052;SDS011;33824;51.600;5.718;2023-09-30T01:58:23;12.10;;;4.63;;
48052;SDS011;33824;51.600;5.718;2023-09-30T02:00:50;12.02;;;4.57;;
48052;SDS011;33824;51.600;5.718;2023-09-30T02:03:15;13.10;;;5.00;;
48052;SDS011;33824;51.600;5.718;2023-09-30T02:05:42;11.30;;;4.75;;
48052;SDS011;33824;51.600;5.718;2023-09-30T02:08:08;14.65;;;4.93;;
48052;SDS011;33824;51.600;5.718;2023-09-30T02:10:33;16.23;;;4.75;;
48052;SDS011;33824;51.600;5.718;2023-09-30T02:12:59;10.85;;;4.90;;
48052;SDS011;33824;51.600;5.718;2023-09-30T02:15:25;13.43;;;5.28;;
48052;SDS011;33824;51.600;5.718;2023-09-30T02:17:51;10.48;;;4.82;;
48052;SDS011;33824;51.600;5.718;2023-09-30T02:20:17;15.68;;;4.35;;
48052;SDS011;33824;51.600;5.718;2023-09-30T02:22:47;20.20;;;6.40;;
48052;SDS011;33824;51.600;5.718;2023-09-30T02:25:14;15.13;;;6.25;;
48052;SDS011;33824;51.600;5.718;2023-09-30T02:27:40;15.10;;;5.63;;
48052;SDS011;33824;51.600;5.718;2023-09-30T02:30:07;12.63;;;5.65;;
48052;SDS011;33824;51.600;5.718;2023-09-30T02:32:35;15.80;;;5.88;;
48052;SDS011;33824;51.600;5.718;2023-09-30T02:35:03;10.60;;;5.25;;
48052;SDS011;33824;51.600;5.718;2023-09-30T02:37:31;10.65;;;4.65;;
48052;SDS011;33824;51.600;5.718;2023-09-30T02:40:04;14.50;;;5.77;;
48052;SDS011;33824;51.600;5.718;2023-09-30T02:42:37;12.27;;;5.10;;
48052;SDS011;33824;51.600;5.718;2023-09-30T02:45:04;9.52;;;5.10;;
48052;SDS011;33824;51.600;5.718;2023-09-30T02:47:30;14.70;;;5.15;;
48052;SDS011;33824;51.600;5.718;2023-09-30T02:49:57;11.57;;;5.97;;
48052;SDS011;33824;51.600;5.718;2023-09-30T02:52:23;14.80;;;5.88;;
48052;SDS011;33824;51.600;5.718;2023-09-30T02:54:49;17.50;;;6.15;;
48052;SDS011;33824;51.600;5.718;2023-09-30T02:57:18;19.17;;;6.18;;
48052;SDS011;33824;51.600;5.718;2023-09-30T02:59:44;13.98;;;5.75;;
48052;SDS011;33824;51.600;5.718;2023-09-30T03:02:10;13.13;;;5.63;;
48052;SDS011;33824;51.600;5.718;2023-09-30T03:04:37;11.93;;;5.65;;
48052;SDS011;33824;51.600;5.718;2023-09-30T03:07:02;19.00;;;6.47;;
48052;SDS011;33824;51.600;5.718;2023-09-30T03:09:28;15.23;;;5.60;;
48052;SDS011;33824;51.600;5.718;2023-09-30T03:11:53;17.95;;;5.47;;
48052;SDS011;33824;51.600;5.718;2023-09-30T03:14:21;16.30;;;6.13;;
48052;SDS011;33824;51.600;5.718;2023-09-30T03:16:48;12.10;;;5.18;;
48052;SDS011;33824;51.600;5.718;2023-09-30T03:19:14;13.05;;;5.38;;
48052;SDS011;33824;51.600;5.718;2023-09-30T03:21:42;13.77;;;5.43;;
48052;SDS011;33824;51.600;5.718;2023-09-30T03:24:08;16.58;;;6.10;;
48052;SDS011;33824;51.600;5.718;2023-09-30T03:26:33;11.50;;;5.28;;
48052;SDS011;33824;51.600;5.718;2023-09-30T03:28:59;11.40;;;5.28;;
48052;SDS011;33824;51.600;5.718;2023-09-30T03:31:25;13.38;;;5.93;;
48052;SDS011;33824;51.600;5.718;2023-09-30T03:33:51;14.93;;;5.70;;
48052;SDS011;33824;51.600;5.718;2023-09-30T03:36:20;14.32;;;5.60;;
48052;SDS011;33824;51.600;5.718;2023-09-30T03:38:50;14.68;;;6.13;;
48052;SDS011;33824;51.600;5.718;2023-09-30T03:41:20;13.77;;;5.63;;
48052;SDS011;33824;51.600;5.718;2023-09-30T03:43:46;13.98;;;5.47;;
48052;SDS011;33824;51.600;5.718;2023-09-30T03:46:14;12.70;;;6.68;;
48052;SDS011;33824;51.600;5.718;2023-09-30T03:48:41;13.88;;;5.70;;
48052;SDS011;33824;51.600;5.718;2023-09-30T03:51:08;14.77;;;5.88;;
48052;SDS011;33824;51.600;5.718;2023-09-30T03:53:49;11.70;;;5.80;;
48052;SDS011;33824;51.600;5.718;2023-09-30T03:56:14;12.27;;;6.15;;
48052;SDS011;33824;51.600;5.718;2023-09-30T03:58:40;15.77;;;6.47;;
48052;SDS011;33824;51.600;5.718;2023-09-30T04:01:07;11.07;;;6.40;;
48052;SDS011;33824;51.600;5.718;2023-09-30T04:03:33;19.40;;;5.93;;
48052;SDS011;33824;51.600;5.718;2023-09-30T04:06:01;16.20;;;7.18;;
48052;SDS011;33824;51.600;5.718;2023-09-30T04:08:28;13.93;;;6.20;;
48052;SDS011;33824;51.600;5.718;2023-09-30T04:10:54;13.40;;;6.65;;
48052;SDS011;33824;51.600;5.718;2023-09-30T04:13:19;16.55;;;6.57;;
48052;SDS011;33824;51.600;5.718;2023-09-30T04:15:46;15.07;;;6.82;;
48052;SDS011;33824;51.600;5.718;2023-09-30T04:18:12;17.20;;;7.20;;
48052;SDS011;33824;51.600;5.718;2023-09-30T04:20:38;16.52;;;7.10;;
48052;SDS011;33824;51.600;5.718;2023-09-30T04:23:06;14.93;;;6.47;;
48052;SDS011;33824;51.600;5.718;2023-09-30T04:25:35;19.83;;;7.85;;
48052;SDS011;33824;51.600;5.718;2023-09-30T04:28:01;12.85;;;6.80;;
48052;SDS011;33824;51.600;5.718;2023-09-30T04:30:27;17.77;;;7.78;;
48052;SDS011;33824;51.600;5.718;2023-09-30T04:32:53;15.35;;;7.20;;
48052;SDS011;33824;51.600;5.718;2023-09-30T04:35:19;12.20;;;6.13;;
48052;SDS011;33824;51.600;5.718;2023-09-30T04:37:45;14.30;;;7.60;;
48052;SDS011;33824;51.600;5.718;2023-09-30T04:40:11;12.95;;;6.63;;
48052;SDS011;33824;51.600;5.718;2023-09-30T04:42:45;14.50;;;6.85;;
48052;SDS011;33824;51.600;5.718;2023-09-30T04:45:12;17.60;;;6.97;;
48052;SDS011;33824;51.600;5.718;2023-09-30T04:47:38;15.38;;;6.90;;
48052;SDS011;33824;51.600;5.718;2023-09-30T04:50:07;11.57;;;6.10;;
48052;SDS011;33824;51.600;5.718;2023-09-30T04:52:34;17.95;;;7.30;;
48052;SDS011;33824;51.600;5.718;2023-09-30T04:55:00;15.98;;;7.25;;
48052;SDS011;33824;51.600;5.718;2023-09-30T04:57:26;15.43;;;7.60;;
48052;SDS011;33824;51.600;5.718;2023-09-30T04:59:53;13.50;;;7.35;;
48052;SDS011;33824;51.600;5.718;2023-09-30T05:02:18;13.57;;;6.70;;
48052;SDS011;33824;51.600;5.718;2023-09-30T05:04:44;14.85;;;6.95;;
48052;SDS011;33824;51.600;5.718;2023-09-30T05:07:10;13.80;;;6.72;;
48052;SDS011;33824;51.600;5.718;2023-09-30T05:09:35;19.90;;;6.45;;
48052;SDS011;33824;51.600;5.718;2023-09-30T05:12:01;14.60;;;5.90;;
48052;SDS011;33824;51.600;5.718;2023-09-30T05:14:29;13.90;;;7.38;;
48052;SDS011;33824;51.600;5.718;2023-09-30T05:16:55;12.25;;;6.20;;
48052;SDS011;33824;51.600;5.718;2023-09-30T05:19:21;13.63;;;5.70;;
48052;SDS011;33824;51.600;5.718;2023-09-30T05:21:47;11.65;;;6.13;;
48052;SDS011;33824;51.600;5.718;2023-09-30T05:24:14;22.17;;;6.28;;
48052;SDS011;33824;51.600;5.718;2023-09-30T05:26:40;15.68;;;7.15;;
48052;SDS011;33824;51.600;5.718;2023-09-30T05:29:06;33.28;;;6.90;;
48052;SDS011;33824;51.600;5.718;2023-09-30T05:31:32;15.30;;;6.95;;
48052;SDS011;33824;51.600;5.718;2023-09-30T05:33:58;14.15;;;6.38;;
48052;SDS011;33824;51.600;5.718;2023-09-30T05:36:24;14.93;;;5.95;;
48052;SDS011;33824;51.600;5.718;2023-09-30T05:38:49;17.50;;;6.38;;
48052;SDS011;33824;51.600;5.718;2023-09-30T05:41:16;15.77;;;6.18;;
48052;SDS011;33824;51.600;5.718;2023-09-30T05:43:41;13.00;;;6.05;;
48052;SDS011;33824;51.600;5.718;2023-09-30T05:46:09;15.40;;;6.93;;
48052;SDS011;33824;51.600;5.718;2023-09-30T05:48:34;20.02;;;6.75;;
48052;SDS011;33824;51.600;5.718;2023-09-30T05:51:00;14.60;;;6.47;;
48052;SDS011;33824;51.600;5.718;2023-09-30T05:53:28;13.52;;;6.22;;
48052;SDS011;33824;51.600;5.718;2023-09-30T05:55:53;17.63;;;7.50;;
48052;SDS011;33824;51.600;5.718;2023-09-30T05:58:19;14.45;;;6.43;;
48052;SDS011;33824;51.600;5.718;2023-09-30T06:00:44;14.35;;;6.55;;
48052;SDS011;33824;51.600;5.718;2023-09-30T06:03:13;15.70;;;7.00;;
48052;SDS011;33824;51.600;5.718;2023-09-30T06:05:39;15.57;;;6.35;;
48052;SDS011;33824;51.600;5.718;2023-09-30T06:08:07;16.63;;;7.38;;
48052;SDS011;33824;51.600;5.718;2023-09-30T06:10:36;16.90;;;6.85;;
48052;SDS011;33824;51.600;5.718;2023-09-30T06:13:03;14.77;;;6.22;;
48052;SDS011;33824;51.600;5.718;2023-09-30T06:15:29;14.30;;;6.82;;
48052;SDS011;33824;51.600;5.718;2023-09-30T06:17:55;18.13;;;6.78;;
48052;SDS011;33824;51.600;5.718;2023-09-30T06:20:21;13.57;;;6.72;;
48052;SDS011;33824;51.600;5.718;2023-09-30T06:22:55;16.00;;;7.68;;
48052;SDS011;33824;51.600;5.718;2023-09-30T06:25:21;16.80;;;7.85;;
48052;SDS011;33824;51.600;5.718;2023-09-30T06:27:49;19.10;;;7.63;;
48052;SDS011;33824;51.600;5.718;2023-09-30T06:30:15;15.35;;;8.07;;
48052;SDS011;33824;51.600;5.718;2023-09-30T06:32:42;16.38;;;7.20;;
48052;SDS011;33824;51.600;5.718;2023-09-30T06:35:08;14.57;;;7.45;;
48052;SDS011;33824;51.600;5.718;2023-09-30T06:37:39;15.00;;;7.05;;
48052;SDS011;33824;51.600;5.718;2023-09-30T06:40:08;21.83;;;7.88;;
48052;SDS011;33824;51.600;5.718;2023-09-30T06:42:39;13.70;;;7.63;;
48052;SDS011;33824;51.600;5.718;2023-09-30T06:45:06;17.60;;;7.50;;
48052;SDS011;33824;51.600;5.718;2023-09-30T06:47:35;28.77;;;7.78;;
48052;SDS011;33824;51.600;5.718;2023-09-30T06:50:02;17.08;;;7.40;;
48052;SDS011;33824;51.600;5.718;2023-09-30T06:52:34;16.10;;;8.32;;
48052;SDS011;33824;51.600;5.718;2023-09-30T06:55:02;16.45;;;7.75;;
48052;SDS011;33824;51.600;5.718;2023-09-30T06:57:30;15.98;;;7.30;;
48052;SDS011;33824;51.600;5.718;2023-09-30T06:59:59;19.13;;;8.18;;
48052;SDS011;33824;51.600;5.718;2023-09-30T07:02:24;12.85;;;7.40;;
48052;SDS011;33824;51.600;5.718;2023-09-30T07:04:51;15.57;;;7.45;;
48052;SDS011;33824;51.600;5.718;2023-09-30T07:07:17;16.05;;;7.80;;
48052;SDS011;33824;51.600;5.718;2023-09-30T07:09:43;13.35;;;7.70;;
48052;SDS011;33824;51.600;5.718;2023-09-30T07:12:09;15.63;;;7.97;;
48052;SDS011;33824;51.600;5.718;2023-09-30T07:14:34;23.45;;;8.32;;
48052;SDS011;33824;51.600;5.718;2023-09-30T07:17:00;14.02;;;7.65;;
48052;SDS011;33824;51.600;5.718;2023-09-30T07:19:26;21.15;;;7.63;;
48052;SDS011;33824;51.600;5.718;2023-09-30T07:21:51;15.40;;;7.28;;
48052;SDS011;33824;51.600;5.718;2023-09-30T07:24:17;17.65;;;7.88;;
48052;SDS011;33824;51.600;5.718;2023-09-30T07:26:42;15.23;;;7.47;;
48052;SDS011;33824;51.600;5.718;2023-09-30T07:29:08;19.38;;;7.20;;
48052;SDS011;33824;51.600;5.718;2023-09-30T07:31:35;18.35;;;7.88;;
48052;SDS011;33824;51.600;5.718;2023-09-30T07:34:01;16.17;;;6.90;;
48052;SDS011;33824;51.600;5.718;2023-09-30T07:36:27;19.00;;;7.07;;
48052;SDS011;33824;51.600;5.718;2023-09-30T07:38:53;14.25;;;6.78;;
48052;SDS011;33824;51.600;5.718;2023-09-30T07:41:19;16.98;;;7.32;;
48052;SDS011;33824;51.600;5.718;2023-09-30T07:43:45;19.13;;;7.70;;
48052;SDS011;33824;51.600;5.718;2023-09-30T07:46:10;16.23;;;6.65;;
48052;SDS011;33824;51.600;5.718;2023-09-30T07:48:36;15.82;;;6.97;;
48052;SDS011;33824;51.600;5.718;2023-09-30T07:51:01;18.60;;;6.95;;
48052;SDS011;33824;51.600;5.718;2023-09-30T07:53:27;19.27;;;6.70;;
48052;SDS011;33824;51.600;5.718;2023-09-30T07:55:54;18.67;;;6.95;;
48052;SDS011;33824;51.600;5.718;2023-09-30T07:58:20;21.50;;;7.22;;
48052;SDS011;33824;51.600;5.718;2023-09-30T08:00:45;15.40;;;6.15;;
48052;SDS011;33824;51.600;5.718;2023-09-30T08:03:11;19.20;;;6.38;;
48052;SDS011;33824;51.600;5.718;2023-09-30T08:05:37;15.32;;;6.43;;
48052;SDS011;33824;51.600;5.718;2023-09-30T08:08:03;18.63;;;6.25;;
48052;SDS011;33824;51.600;5.718;2023-09-30T08:10:29;18.17;;;6.55;;
48052;SDS011;33824;51.600;5.718;2023-09-30T08:12:57;14.98;;;6.32;;
48052;SDS011;33824;51.600;5.718;2023-09-30T08:15:24;14.30;;;5.75;;
48052;SDS011;33824;51.600;5.718;2023-09-30T08:17:50;20.63;;;6.05;;
48052;SDS011;33824;51.600;5.718;2023-09-30T08:20:18;18.38;;;6.43;;
48052;SDS011;33824;51.600;5.718;2023-09-30T08:22:44;18.02;;;6.70;;
48052;SDS011;33824;51.600;5.718;2023-09-30T08:25:10;17.90;;;6.72;;
48052;SDS011;33824;51.600;5.718;2023-09-30T08:27:36;14.23;;;6.45;;
48052;SDS011;33824;51.600;5.718;2023-09-30T08:30:03;16.58;;;6.20;;
48052;SDS011;33824;51.600;5.718;2023-09-30T08:32:37;15.98;;;6.10;;
48052;SDS011;33824;51.600;5.718;2023-09-30T08:35:02;18.55;;;5.43;;
48052;SDS011;33824;51.600;5.718;2023-09-30T08:37:29;18.15;;;5.78;;
48052;SDS011;33824;51.600;5.718;2023-09-30T08:39:55;17.73;;;5.35;;
48052;SDS011;33824;51.600;5.718;2023-09-30T08:42:20;20.73;;;5.85;;
48052;SDS011;33824;51.600;5.718;2023-09-30T08:44:47;17.63;;;6.38;;
48052;SDS011;33824;51.600;5.718;2023-09-30T08:47:14;20.05;;;5.88;;
48052;SDS011;33824;51.600;5.718;2023-09-30T08:49:40;19.90;;;5.95;;
48052;SDS011;33824;51.600;5.718;2023-09-30T08:52:07;17.75;;;5.75;;
48052;SDS011;33824;51.600;5.718;2023-09-30T08:54:34;16.35;;;5.85;;
48052;SDS011;33824;51.600;5.718;2023-09-30T08:57:00;15.63;;;5.45;;
48052;SDS011;33824;51.600;5.718;2023-09-30T08:59:30;16.77;;;6.50;;
48052;SDS011;33824;51.600;5.718;2023-09-30T09:01:57;17.85;;;7.25;;
48052;SDS011;33824;51.600;5.718;2023-09-30T09:04:23;26.15;;;6.68;;
48052;SDS011;33824;51.600;5.718;2023-09-30T09:06:53;21.92;;;5.80;;
48052;SDS011;33824;51.600;5.718;2023-09-30T09:09:20;19.20;;;6.55;;
48052;SDS011;33824;51.600;5.718;2023-09-30T09:11:47;19.65;;;6.63;;
48052;SDS011;33824;51.600;5.718;2023-09-30T09:14:14;17.35;;;6.57;;
48052;SDS011;33824;51.600;5.718;2023-09-30T09:16:53;19.10;;;7.07;;
48052;SDS011;33824;51.600;5.718;2023-09-30T09:19:20;15.25;;;6.40;;
48052;SDS011;33824;51.600;5.718;2023-09-30T09:21:59;20.73;;;6.00;;
48052;SDS011;33824;51.600;5.718;2023-09-30T09:24:35;19.65;;;7.25;;
48052;SDS011;33824;51.600;5.718;2023-09-30T09:27:08;18.73;;;6.22;;
48052;SDS011;33824;51.600;5.718;2023-09-30T09:29:37;16.63;;;5.40;;
48052;SDS011;33824;51.600;5.718;2023-09-30T09:34:36;15.65;;;6.35;;
48052;SDS011;33824;51.600;5.718;2023-09-30T09:37:18;16.08;;;5.68;;
48052;SDS011;33824;51.600;5.718;2023-09-30T09:39:49;11.63;;;5.22;;
48052;SDS011;33824;51.600;5.718;2023-09-30T09:42:23;13.32;;;5.38;;
48052;SDS011;33824;51.600;5.718;2023-09-30T09:44:51;14.07;;;4.97;;
48052;SDS011;33824;51.600;5.718;2023-09-30T09:47:21;16.27;;;6.15;;
48052;SDS011;33824;51.600;5.718;2023-09-30T09:49:47;14.23;;;5.47;;
48052;SDS011;33824;51.600;5.718;2023-09-30T09:52:12;16.05;;;6.88;;
48052;SDS011;33824;51.600;5.718;2023-09-30T09:54:40;18.27;;;5.20;;
48052;SDS011;33824;51.600;5.718;2023-09-30T09:57:06;10.77;;;4.30;;
48052;SDS011;33824;51.600;5.718;2023-09-30T09:59:36;13.93;;;5.03;;
48052;SDS011;33824;51.600;5.718;2023-09-30T10:02:03;19.80;;;5.15;;
48052;SDS011;33824;51.600;5.718;2023-09-30T10:04:36;8.38;;;4.53;;
48052;SDS011;33824;51.600;5.718;2023-09-30T10:07:03;18.00;;;5.15;;
48052;SDS011;33824;51.600;5.718;2023-09-30T10:09:30;9.57;;;4.28;;
48052;SDS011;33824;51.600;5.718;2023-09-30T10:12:00;12.65;;;4.18;;
48052;SDS011;33824;51.600;5.718;2023-09-30T10:14:30;11.10;;;4.30;;
48052;SDS011;33824;51.600;5.718;2023-09-30T10:19:23;12.57;;;3.38;;
48052;SDS011;33824;51.600;5.718;2023-09-30T10:24:56;8.10;;;3.30;;
48052;SDS011;33824;51.600;5.718;2023-09-30T10:29:56;11.32;;;3.25;;
48052;SDS011;33824;51.600;5.718;2023-09-30T10:37:52;20.15;;;3.67;;
48052;SDS011;33824;51.600;5.718;2023-09-30T10:40:46;8.13;;;3.13;;
48052;SDS011;33824;51.600;5.718;2023-09-30T10:43:31;13.35;;;3.58;;
48052;SDS011;33824;51.600;5.718;2023-09-30T10:45:57;12.07;;;3.67;;
48052;SDS011;33824;51.600;5.718;2023-09-30T10:50:53;11.15;;;3.40;;
48052;SDS011;33824;51.600;5.718;2023-09-30T10:53:22;11.23;;;3.65;;
48052;SDS011;33824;51.600;5.718;2023-09-30T10:55:54;16.70;;;4.32;;
48052;SDS011;33824;51.600;5.718;2023-09-30T10:58:21;10.80;;;3.90;;
48052;SDS011;33824;51.600;5.718;2023-09-30T11:00:53;18.38;;;3.65;;
48052;SDS011;33824;51.600;5.718;2023-09-30T11:03:20;11.90;;;3.88;;
48052;SDS011;33824;51.600;5.718;2023-09-30T11:05:49;11.05;;;2.80;;
48052;SDS011;33824;51.600;5.718;2023-09-30T11:08:17;12.15;;;3.08;;
48052;SDS011;33824;51.600;5.718;2023-09-30T11:10:49;14.35;;;2.65;;
48052;SDS011;33824;51.600;5.718;2023-09-30T11:13:16;11.55;;;3.22;;
48052;SDS011;33824;51.600;5.718;2023-09-30T11:15:43;7.88;;;2.72;;
48052;SDS011;33824;51.600;5.718;2023-09-30T11:18:13;8.38;;;3.05;;
48052;SDS011;33824;51.600;5.718;2023-09-30T11:20:40;11.60;;;3.47;;
48052;SDS011;33824;51.600;5.718;2023-09-30T11:23:06;13.10;;;4.25;;
48052;SDS011;33824;51.600;5.718;2023-09-30T11:25:35;10.73;;;2.97;;
48052;SDS011;33824;51.600;5.718;2023-09-30T11:28:18;9.88;;;2.95;;
48052;SDS011;33824;51.600;5.718;2023-09-30T11:30:57;28.10;;;4.03;;
48052;SDS011;33824;51.600;5.718;2023-09-30T11:33:24;9.95;;;3.22;;
48052;SDS011;33824;51.600;5.718;2023-09-30T11:35:57;12.25;;;3.15;;
48052;SDS011;33824;51.600;5.718;2023-09-30T11:38:27;8.40;;;2.42;;
48052;SDS011;33824;51.600;5.718;2023-09-30T11:40:59;9.05;;;2.90;;
48052;SDS011;33824;51.600;5.718;2023-09-30T11:43:28;11.90;;;2.90;;
48052;SDS011;33824;51.600;5.718;2023-09-30T11:46:04;8.00;;;2.65;;
48052;SDS011;33824;51.600;5.718;2023-09-30T11:48:31;10.48;;;3.22;;
48052;SDS011;33824;51.600;5.718;2023-09-30T11:50:58;8.90;;;2.38;;
48052;SDS011;33824;51.600;5.718;2023-09-30T11:53:28;7.10;;;2.35;;
48052;SDS011;33824;51.600;5.718;2023-09-30T11:55:56;6.70;;;2.38;;
48052;SDS011;33824;51.600;5.718;2023-09-30T11:58:28;6.68;;;2.30;;
48052;SDS011;33824;51.600;5.718;2023-09-30T12:00:54;10.35;;;2.10;;
48052;SDS011;33824;51.600;5.718;2023-09-30T12:03:23;12.10;;;2.83;;
48052;SDS011;33824;51.600;5.718;2023-09-30T12:05:49;10.82;;;2.25;;
48052;SDS011;33824;51.600;5.718;2023-09-30T12:08:15;8.50;;;2.53;;
48052;SDS011;33824;51.600;5.718;2023-09-30T12:10:40;15.73;;;3.08;;
48052;SDS011;33824;51.600;5.718;2023-09-30T12:13:06;7.78;;;2.20;;
48052;SDS011;33824;51.600;5.718;2023-09-30T12:15:31;6.43;;;1.88;;
48052;SDS011;33824;51.600;5.718;2023-09-30T12:17:57;5.22;;;2.35;;
48052;SDS011;33824;51.600;5.718;2023-09-30T12:20:22;11.07;;;2.30;;
48052;SDS011;33824;51.600;5.718;2023-09-30T12:22:49;10.13;;;2.47;;
48052;SDS011;33824;51.600;5.718;2023-09-30T12:25:16;7.95;;;2.70;;
48052;SDS011;33824;51.600;5.718;2023-09-30T12:27:44;10.20;;;3.40;;
48052;SDS011;33824;51.600;5.718;2023-09-30T12:30:11;19.38;;;3.28;;
48052;SDS011;33824;51.600;5.718;2023-09-30T12:32:39;10.65;;;2.50;;
48052;SDS011;33824;51.600;5.718;2023-09-30T12:35:06;8.88;;;2.75;;
48052;SDS011;33824;51.600;5.718;2023-09-30T12:37:31;8.55;;;3.00;;
48052;SDS011;33824;51.600;5.718;2023-09-30T12:39:57;10.57;;;2.97;;
48052;SDS011;33824;51.600;5.718;2023-09-30T12:42:23;13.90;;;3.13;;
48052;SDS011;33824;51.600;5.718;2023-09-30T12:44:49;11.73;;;2.30;;
48052;SDS011;33824;51.600;5.718;2023-09-30T12:47:15;7.07;;;1.98;;
48052;SDS011;33824;51.600;5.718;2023-09-30T12:49:41;9.30;;;2.83;;
48052;SDS011;33824;51.600;5.718;2023-09-30T12:52:07;7.60;;;2.22;;
48052;SDS011;33824;51.600;5.718;2023-09-30T12:54:32;9.80;;;2.47;;
48052;SDS011;33824;51.600;5.718;2023-09-30T12:56:59;14.80;;;3.55;;
48052;SDS011;33824;51.600;5.718;2023-09-30T12:59:25;7.22;;;2.28;;
48052;SDS011;33824;51.600;5.718;2023-09-30T13:01:51;12.80;;;3.15;;
48052;SDS011;33824;51.600;5.718;2023-09-30T13:04:17;5.18;;;2.00;;
48052;SDS011;33824;51.600;5.718;2023-09-30T13:06:44;9.52;;;2.45;;
48052;SDS011;33824;51.600;5.718;2023-09-30T13:09:10;11.15;;;2.60;;
48052;SDS011;33824;51.600;5.718;2023-09-30T13:11:37;9.02;;;2.38;;
48052;SDS011;33824;51.600;5.718;2023-09-30T13:14:03;7.72;;;2.30;;
48052;SDS011;33824;51.600;5.718;2023-09-30T13:16:29;12.68;;;3.55;;
48052;SDS011;33824;51.600;5.718;2023-09-30T13:18:54;10.52;;;2.47;;
48052;SDS011;33824;51.600;5.718;2023-09-30T13:21:20;14.25;;;2.67;;
48052;SDS011;33824;51.600;5.718;2023-09-30T13:23:45;6.18;;;2.45;;
48052;SDS011;33824;51.600;5.718;2023-09-30T13:26:11;10.45;;;2.38;;
48052;SDS011;33824;51.600;5.718;2023-09-30T13:28:37;10.85;;;2.80;;
48052;SDS011;33824;51.600;5.718;2023-09-30T13:31:02;10.45;;;2.45;;
48052;SDS011;33824;51.600;5.718;2023-09-30T13:33:28;12.93;;;2.72;;
48052;SDS011;33824;51.600;5.718;2023-09-30T13:35:53;8.68;;;2.58;;
48052;SDS011;33824;51.600;5.718;2023-09-30T13:38:20;10.90;;;2.95;;
48052;SDS011;33824;51.600;5.718;2023-09-30T13:40:46;10.43;;;2.42;;
48052;SDS011;33824;51.600;5.718;2023-09-30T13:43:11;9.32;;;2.45;;
48052;SDS011;33824;51.600;5.718;2023-09-30T13:45:37;6.03;;;2.03;;
48052;SDS011;33824;51.600;5.718;2023-09-30T13:48:03;8.95;;;2.92;;
48052;SDS011;33824;51.600;5.718;2023-09-30T13:50:30;9.63;;;2.67;;
48052;SDS011;33824;51.600;5.718;2023-09-30T13:52:55;5.63;;;1.88;;
48052;SDS011;33824;51.600;5.718;2023-09-30T13:55:21;10.48;;;2.33;;
48052;SDS011;33824;51.600;5.718;2023-09-30T13:57:47;6.97;;;2.20;;
48052;SDS011;33824;51.600;5.718;2023-09-30T14:00:15;6.90;;;2.13;;
48052;SDS011;33824;51.600;5.718;2023-09-30T14:02:43;9.30;;;2.65;;
48052;SDS011;33824;51.600;5.718;2023-09-30T14:05:09;10.27;;;2.03;;
48052;SDS011;33824;51.600;5.718;2023-09-30T14:07:35;6.53;;;2.33;;
48052;SDS011;33824;51.600;5.718;2023-09-30T14:10:02;8.60;;;2.30;;
48052;SDS011;33824;51.600;5.718;2023-09-30T14:12:29;8.77;;;2.30;;
48052;SDS011;33824;51.600;5.718;2023-09-30T14:14:54;9.20;;;2.28;;
48052;SDS011;33824;51.600;5.718;2023-09-30T14:17:20;8.68;;;2.47;;
48052;SDS011;33824;51.600;5.718;2023-09-30T14:19:46;6.07;;;2.22;;
48052;SDS011;33824;51.600;5.718;2023-09-30T14:22:11;7.05;;;2.42;;
48052;SDS011;33824;51.600;5.718;2023-09-30T14:24:37;9.55;;;2.28;;
48052;SDS011;33824;51.600;5.718;2023-09-30T14:27:03;6.45;;;2.35;;
48052;SDS011;33824;51.600;5.718;2023-09-30T14:29:30;13.77;;;1.92;;
48052;SDS011;33824;51.600;5.718;2023-09-30T14:31:56;8.70;;;2.22;;
48052;SDS011;33824;51.600;5.718;2023-09-30T14:34:23;13.13;;;2.20;;
48052;SDS011;33824;51.600;5.718;2023-09-30T14:36:49;10.50;;;2.90;;
48052;SDS011;33824;51.600;5.718;2023-09-30T14:39:16;9.57;;;2.17;;
48052;SDS011;33824;51.600;5.718;2023-09-30T14:41:44;13.05;;;2.38;;
48052;SDS011;33824;51.600;5.718;2023-09-30T14:44:11;10.45;;;1.95;;
48052;SDS011;33824;51.600;5.718;2023-09-30T14:46:37;4.78;;;1.95;;
48052;SDS011;33824;51.600;5.718;2023-09-30T14:49:04;6.90;;;1.98;;
48052;SDS011;33824;51.600;5.718;2023-09-30T14:51:31;7.47;;;2.58;;
48052;SDS011;33824;51.600;5.718;2023-09-30T14:54:00;6.75;;;2.50;;
48052;SDS011;33824;51.600;5.718;2023-09-30T14:56:26;6.57;;;1.88;;